sensor_id;sensor_type;location;lat;lon;timestamp;temperature;humidity
46319;DHT22;32042;50.916;2.926;2022-10-31T00:01:00;11.70;99.90
46319;DHT22;32042;50.916;2.926;2022-10-31T00:03:26;11.70;99.90
46319;DHT22;32042;50.916;2.926;2022-10-31T00:05:52;11.70;99.90
46319;DHT22;32042;50.916;2.926;2022-10-31T00:08:18;11.70;99.90
46319;DHT22;32042;50.916;2.926;2022-10-31T00:10:45;11.70;99.90
46319;DHT22;32042;50.916;2.926;2022-10-31T00:13:12;11.70;99.90
46319;DHT22;32042;50.916;2.926;2022-10-31T00:15:39;11.70;99.90
46319;DHT22;32042;50.916;2.926;2022-10-31T00:18:06;11.70;99.90
46319;DHT22;32042;50.916;2.926;2022-10-31T00:20:32;11.70;99.90
46319;DHT22;32042;50.916;2.926;2022-10-31T00:22:59;11.60;99.90
46319;DHT22;32042;50.916;2.926;2022-10-31T00:25:26;11.60;99.90
46319;DHT22;32042;50.916;2.926;2022-10-31T00:27:52;11.60;99.90
46319;DHT22;32042;50.916;2.926;2022-10-31T00:30:18;11.60;99.90
46319;DHT22;32042;50.916;2.926;2022-10-31T00:32:43;11.60;99.90
46319;DHT22;32042;50.916;2.926;2022-10-31T00:35:09;11.50;99.90
46319;DHT22;32042;50.916;2.926;2022-10-31T00:37:35;11.50;99.90
46319;DHT22;32042;50.916;2.926;2022-10-31T00:40:00;11.40;99.90
46319;DHT22;32042;50.916;2.926;2022-10-31T00:42:26;11.40;99.90
46319;DHT22;32042;50.916;2.926;2022-10-31T00:44:52;11.40;99.90
46319;DHT22;32042;50.916;2.926;2022-10-31T00:47:17;11.30;99.90
46319;DHT22;32042;50.916;2.926;2022-10-31T00:49:43;11.30;99.90
46319;DHT22;32042;50.916;2.926;2022-10-31T00:52:09;11.20;99.90
46319;DHT22;32042;50.916;2.926;2022-10-31T00:54:34;11.30;99.90
46319;DHT22;32042;50.916;2.926;2022-10-31T00:57:00;11.20;99.90
46319;DHT22;32042;50.916;2.926;2022-10-31T00:59:25;11.20;99.90
46319;DHT22;32042;50.916;2.926;2022-10-31T01:01:51;11.20;99.90
46319;DHT22;32042;50.916;2.926;2022-10-31T01:04:17;11.30;99.90
46319;DHT22;32042;50.916;2.926;2022-10-31T01:06:42;11.20;99.90
46319;DHT22;32042;50.916;2.926;2022-10-31T01:09:08;11.20;99.90
46319;DHT22;32042;50.916;2.926;2022-10-31T01:11:34;11.20;99.90
46319;DHT22;32042;50.916;2.926;2022-10-31T01:13:59;11.20;99.90
46319;DHT22;32042;50.916;2.926;2022-10-31T01:16:27;11.20;99.90
46319;DHT22;32042;50.916;2.926;2022-10-31T01:18:54;11.20;99.90
46319;DHT22;32042;50.916;2.926;2022-10-31T01:21:26;11.20;99.90
46319;DHT22;32042;50.916;2.926;2022-10-31T01:23:55;11.20;99.90
46319;DHT22;32042;50.916;2.926;2022-10-31T01:26:29;11.20;99.90
46319;DHT22;32042;50.916;2.926;2022-10-31T01:29:00;11.20;99.90
46319;DHT22;32042;50.916;2.926;2022-10-31T01:31:33;11.30;99.90
46319;DHT22;32042;50.916;2.926;2022-10-31T01:33:59;11.30;99.90
46319;DHT22;32042;50.916;2.926;2022-10-31T01:36:28;11.30;99.90
46319;DHT22;32042;50.916;2.926;2022-10-31T01:38:57;11.20;99.90
46319;DHT22;32042;50.916;2.926;2022-10-31T01:41:27;11.20;99.90
46319;DHT22;32042;50.916;2.926;2022-10-31T01:46:29;11.20;99.90
46319;DHT22;32042;50.916;2.926;2022-10-31T01:48:58;11.20;99.90
46319;DHT22;32042;50.916;2.926;2022-10-31T01:51:29;11.20;99.90
46319;DHT22;32042;50.916;2.926;2022-10-31T01:53:59;11.20;99.90
46319;DHT22;32042;50.916;2.926;2022-10-31T01:56:26;11.20;99.90
46319;DHT22;32042;50.916;2.926;2022-10-31T01:58:54;11.10;99.90
46319;DHT22;32042;50.916;2.926;2022-10-31T02:01:20;11.10;99.90
46319;DHT22;32042;50.916;2.926;2022-10-31T02:03:47;10.90;99.90
46319;DHT22;32042;50.916;2.926;2022-10-31T02:06:35;11.00;99.90
46319;DHT22;32042;50.916;2.926;2022-10-31T02:09:03;10.90;99.90
46319;DHT22;32042;50.916;2.926;2022-10-31T02:11:29;11.00;99.90
46319;DHT22;32042;50.916;2.926;2022-10-31T02:13:56;10.90;99.90
46319;DHT22;32042;50.916;2.926;2022-10-31T02:16:23;10.90;99.90
46319;DHT22;32042;50.916;2.926;2022-10-31T02:18:49;10.90;99.90
46319;DHT22;32042;50.916;2.926;2022-10-31T02:24:26;10.80;99.90
46319;DHT22;32042;50.916;2.926;2022-10-31T02:27:19;10.80;99.90
46319;DHT22;32042;50.916;2.926;2022-10-31T02:30:13;10.80;99.90
46319;DHT22;32042;50.916;2.926;2022-10-31T02:44:28;10.50;99.90
46319;DHT22;32042;50.916;2.926;2022-10-31T02:51:45;10.40;99.90
46319;DHT22;32042;50.916;2.926;2022-10-31T02:54:21;10.40;99.90
46319;DHT22;32042;50.916;2.926;2022-10-31T02:56:47;10.30;99.90
46319;DHT22;32042;50.916;2.926;2022-10-31T02:59:14;10.40;99.90
46319;DHT22;32042;50.916;2.926;2022-10-31T03:07:41;10.40;99.90
46319;DHT22;32042;50.916;2.926;2022-10-31T03:15:30;10.40;99.90
46319;DHT22;32042;50.916;2.926;2022-10-31T03:18:27;10.40;99.90
46319;DHT22;32042;50.916;2.926;2022-10-31T03:21:04;10.50;99.90
46319;DHT22;32042;50.916;2.926;2022-10-31T03:23:34;10.50;99.90
46319;DHT22;32042;50.916;2.926;2022-10-31T03:26:04;10.50;99.90
46319;DHT22;32042;50.916;2.926;2022-10-31T03:28:34;10.50;99.90
46319;DHT22;32042;50.916;2.926;2022-10-31T03:31:02;10.50;99.90
46319;DHT22;32042;50.916;2.926;2022-10-31T03:33:31;10.50;99.90
46319;DHT22;32042;50.916;2.926;2022-10-31T03:36:00;10.50;99.90
46319;DHT22;32042;50.916;2.926;2022-10-31T03:38:28;10.50;99.90
46319;DHT22;32042;50.916;2.926;2022-10-31T03:40:56;10.50;99.90
46319;DHT22;32042;50.916;2.926;2022-10-31T03:43:27;10.50;99.90
46319;DHT22;32042;50.916;2.926;2022-10-31T03:45:53;10.50;99.90
46319;DHT22;32042;50.916;2.926;2022-10-31T03:48:19;10.50;99.90
46319;DHT22;32042;50.916;2.926;2022-10-31T03:53:34;10.50;99.90
46319;DHT22;32042;50.916;2.926;2022-10-31T03:56:22;10.50;99.90
46319;DHT22;32042;50.916;2.926;2022-10-31T03:58:58;10.50;99.90
46319;DHT22;32042;50.916;2.926;2022-10-31T04:01:26;10.50;99.90
46319;DHT22;32042;50.916;2.926;2022-10-31T04:03:53;10.50;99.90
46319;DHT22;32042;50.916;2.926;2022-10-31T04:06:21;10.60;99.90
46319;DHT22;32042;50.916;2.926;2022-10-31T04:09:00;10.50;99.90
46319;DHT22;32042;50.916;2.926;2022-10-31T04:11:30;10.50;99.90
46319;DHT22;32042;50.916;2.926;2022-10-31T04:13:58;10.50;99.90
46319;DHT22;32042;50.916;2.926;2022-10-31T04:16:25;10.50;99.90
46319;DHT22;32042;50.916;2.926;2022-10-31T04:18:51;10.50;99.90
46319;DHT22;32042;50.916;2.926;2022-10-31T04:21:17;10.50;99.90
46319;DHT22;32042;50.916;2.926;2022-10-31T04:23:43;10.50;99.90
46319;DHT22;32042;50.916;2.926;2022-10-31T04:26:11;10.50;99.90
46319;DHT22;32042;50.916;2.926;2022-10-31T04:28:37;10.50;99.90
46319;DHT22;32042;50.916;2.926;2022-10-31T04:31:03;10.50;99.90
46319;DHT22;32042;50.916;2.926;2022-10-31T04:33:29;10.50;99.90
46319;DHT22;32042;50.916;2.926;2022-10-31T04:35:54;10.50;99.90
46319;DHT22;32042;50.916;2.926;2022-10-31T04:38:20;10.40;99.90
46319;DHT22;32042;50.916;2.926;2022-10-31T04:40:46;10.50;99.90
46319;DHT22;32042;50.916;2.926;2022-10-31T04:43:11;10.40;99.90
46319;DHT22;32042;50.916;2.926;2022-10-31T04:45:37;10.40;99.90
46319;DHT22;32042;50.916;2.926;2022-10-31T04:48:03;10.40;99.90
46319;DHT22;32042;50.916;2.926;2022-10-31T04:50:29;10.40;99.90
46319;DHT22;32042;50.916;2.926;2022-10-31T04:52:55;10.40;99.90
46319;DHT22;32042;50.916;2.926;2022-10-31T04:55:20;10.40;99.90
46319;DHT22;32042;50.916;2.926;2022-10-31T04:57:48;10.40;99.90
46319;DHT22;32042;50.916;2.926;2022-10-31T05:00:17;10.30;99.90
46319;DHT22;32042;50.916;2.926;2022-10-31T05:02:54;10.30;99.90
46319;DHT22;32042;50.916;2.926;2022-10-31T05:05:23;10.40;99.90
46319;DHT22;32042;50.916;2.926;2022-10-31T05:07:49;10.40;99.90
46319;DHT22;32042;50.916;2.926;2022-10-31T05:10:18;10.40;99.90
46319;DHT22;32042;50.916;2.926;2022-10-31T05:12:48;10.40;99.90
46319;DHT22;32042;50.916;2.926;2022-10-31T05:15:15;10.40;99.90
46319;DHT22;32042;50.916;2.926;2022-10-31T05:17:41;10.30;99.90
46319;DHT22;32042;50.916;2.926;2022-10-31T05:20:06;10.30;99.90
46319;DHT22;32042;50.916;2.926;2022-10-31T05:22:32;10.20;99.90
46319;DHT22;32042;50.916;2.926;2022-10-31T05:24:58;10.20;99.90
46319;DHT22;32042;50.916;2.926;2022-10-31T05:27:23;10.10;99.90
46319;DHT22;32042;50.916;2.926;2022-10-31T05:29:49;10.10;99.90
46319;DHT22;32042;50.916;2.926;2022-10-31T05:32:15;10.10;99.90
46319;DHT22;32042;50.916;2.926;2022-10-31T05:34:40;10.00;99.90
46319;DHT22;32042;50.916;2.926;2022-10-31T05:37:06;10.00;99.90
46319;DHT22;32042;50.916;2.926;2022-10-31T05:39:32;10.00;99.90
46319;DHT22;32042;50.916;2.926;2022-10-31T05:41:57;10.00;99.90
46319;DHT22;32042;50.916;2.926;2022-10-31T05:44:23;9.90;99.90
46319;DHT22;32042;50.916;2.926;2022-10-31T05:46:49;9.90;99.90
46319;DHT22;32042;50.916;2.926;2022-10-31T05:49:14;10.00;99.90
46319;DHT22;32042;50.916;2.926;2022-10-31T05:51:40;10.00;99.90
46319;DHT22;32042;50.916;2.926;2022-10-31T05:54:06;9.90;99.90
46319;DHT22;32042;50.916;2.926;2022-10-31T05:56:31;10.00;99.90
46319;DHT22;32042;50.916;2.926;2022-10-31T05:58:57;10.00;99.90
46319;DHT22;32042;50.916;2.926;2022-10-31T06:01:22;10.00;99.90
46319;DHT22;32042;50.916;2.926;2022-10-31T06:03:48;10.00;99.90
46319;DHT22;32042;50.916;2.926;2022-10-31T06:06:14;10.00;99.90
46319;DHT22;32042;50.916;2.926;2022-10-31T06:08:40;10.00;99.90
46319;DHT22;32042;50.916;2.926;2022-10-31T06:11:06;10.00;99.90
46319;DHT22;32042;50.916;2.926;2022-10-31T06:13:31;10.00;99.90
46319;DHT22;32042;50.916;2.926;2022-10-31T06:15:57;10.00;99.90
46319;DHT22;32042;50.916;2.926;2022-10-31T06:18:23;10.00;99.90
46319;DHT22;32042;50.916;2.926;2022-10-31T06:20:48;10.00;99.90
46319;DHT22;32042;50.916;2.926;2022-10-31T06:23:14;10.00;99.90
46319;DHT22;32042;50.916;2.926;2022-10-31T06:25:40;10.00;99.90
46319;DHT22;32042;50.916;2.926;2022-10-31T06:28:05;10.10;99.90
46319;DHT22;32042;50.916;2.926;2022-10-31T06:30:31;10.10;99.90
46319;DHT22;32042;50.916;2.926;2022-10-31T06:33:06;10.10;99.90
46319;DHT22;32042;50.916;2.926;2022-10-31T06:35:32;10.10;99.90
46319;DHT22;32042;50.916;2.926;2022-10-31T06:37:58;10.10;99.90
46319;DHT22;32042;50.916;2.926;2022-10-31T06:40:24;10.10;99.90
46319;DHT22;32042;50.916;2.926;2022-10-31T06:43:00;10.20;99.90
46319;DHT22;32042;50.916;2.926;2022-10-31T06:45:26;10.20;99.90
46319;DHT22;32042;50.916;2.926;2022-10-31T06:47:53;10.20;99.90
46319;DHT22;32042;50.916;2.926;2022-10-31T06:50:20;10.20;99.90
46319;DHT22;32042;50.916;2.926;2022-10-31T06:52:53;10.20;99.90
46319;DHT22;32042;50.916;2.926;2022-10-31T06:55:19;10.20;99.90
46319;DHT22;32042;50.916;2.926;2022-10-31T06:57:55;10.30;99.90
46319;DHT22;32042;50.916;2.926;2022-10-31T07:00:21;10.30;99.90
46319;DHT22;32042;50.916;2.926;2022-10-31T07:03:01;10.20;99.90
46319;DHT22;32042;50.916;2.926;2022-10-31T07:05:27;10.30;99.90
46319;DHT22;32042;50.916;2.926;2022-10-31T07:07:58;10.30;99.90
46319;DHT22;32042;50.916;2.926;2022-10-31T07:10:26;10.40;99.90
46319;DHT22;32042;50.916;2.926;2022-10-31T07:12:55;10.40;99.90
46319;DHT22;32042;50.916;2.926;2022-10-31T07:15:22;10.40;99.90
46319;DHT22;32042;50.916;2.926;2022-10-31T07:17:47;10.40;99.90
46319;DHT22;32042;50.916;2.926;2022-10-31T07:20:13;10.40;99.90
46319;DHT22;32042;50.916;2.926;2022-10-31T07:22:39;10.40;99.90
46319;DHT22;32042;50.916;2.926;2022-10-31T07:25:05;10.40;99.90
46319;DHT22;32042;50.916;2.926;2022-10-31T07:27:38;10.50;99.90
46319;DHT22;32042;50.916;2.926;2022-10-31T07:30:05;10.50;99.90
46319;DHT22;32042;50.916;2.926;2022-10-31T07:32:41;10.50;99.90
46319;DHT22;32042;50.916;2.926;2022-10-31T07:35:08;10.50;99.90
46319;DHT22;32042;50.916;2.926;2022-10-31T07:37:34;10.50;99.90
46319;DHT22;32042;50.916;2.926;2022-10-31T07:40:01;10.60;99.90
46319;DHT22;32042;50.916;2.926;2022-10-31T07:42:27;10.60;99.90
46319;DHT22;32042;50.916;2.926;2022-10-31T07:44:52;10.70;99.90
46319;DHT22;32042;50.916;2.926;2022-10-31T07:47:18;10.80;99.90
46319;DHT22;32042;50.916;2.926;2022-10-31T07:49:45;10.90;99.90
46319;DHT22;32042;50.916;2.926;2022-10-31T07:52:10;11.00;99.90
46319;DHT22;32042;50.916;2.926;2022-10-31T07:54:36;11.00;99.90
46319;DHT22;32042;50.916;2.926;2022-10-31T07:57:02;11.10;99.90
46319;DHT22;32042;50.916;2.926;2022-10-31T07:59:27;11.20;99.90
46319;DHT22;32042;50.916;2.926;2022-10-31T08:01:53;11.20;99.90
46319;DHT22;32042;50.916;2.926;2022-10-31T08:04:19;11.30;99.90
46319;DHT22;32042;50.916;2.926;2022-10-31T08:06:44;11.30;99.90
46319;DHT22;32042;50.916;2.926;2022-10-31T08:09:10;11.30;99.90
46319;DHT22;32042;50.916;2.926;2022-10-31T08:11:36;11.30;99.90
46319;DHT22;32042;50.916;2.926;2022-10-31T08:14:01;11.30;99.90
46319;DHT22;32042;50.916;2.926;2022-10-31T08:16:27;11.40;99.90
46319;DHT22;32042;50.916;2.926;2022-10-31T08:18:53;11.40;99.90
46319;DHT22;32042;50.916;2.926;2022-10-31T08:21:21;11.40;99.90
46319;DHT22;32042;50.916;2.926;2022-10-31T08:23:46;11.50;99.90
46319;DHT22;32042;50.916;2.926;2022-10-31T08:26:12;11.50;99.90
46319;DHT22;32042;50.916;2.926;2022-10-31T08:28:38;11.60;99.90
46319;DHT22;32042;50.916;2.926;2022-10-31T08:31:03;11.60;99.90
46319;DHT22;32042;50.916;2.926;2022-10-31T08:33:30;11.60;99.90
46319;DHT22;32042;50.916;2.926;2022-10-31T08:35:58;11.60;99.90
46319;DHT22;32042;50.916;2.926;2022-10-31T08:38:23;11.60;99.90
46319;DHT22;32042;50.916;2.926;2022-10-31T08:40:49;11.70;99.90
46319;DHT22;32042;50.916;2.926;2022-10-31T08:43:16;11.70;99.90
46319;DHT22;32042;50.916;2.926;2022-10-31T08:45:44;11.70;99.90
46319;DHT22;32042;50.916;2.926;2022-10-31T08:48:13;11.70;99.90
46319;DHT22;32042;50.916;2.926;2022-10-31T08:50:40;11.70;99.90
46319;DHT22;32042;50.916;2.926;2022-10-31T08:53:17;11.70;99.90
46319;DHT22;32042;50.916;2.926;2022-10-31T08:55:44;11.80;99.90
46319;DHT22;32042;50.916;2.926;2022-10-31T08:58:13;11.80;99.90
46319;DHT22;32042;50.916;2.926;2022-10-31T09:00:38;11.80;99.90
46319;DHT22;32042;50.916;2.926;2022-10-31T09:03:11;11.90;99.90
46319;DHT22;32042;50.916;2.926;2022-10-31T09:05:37;11.90;99.90
46319;DHT22;32042;50.916;2.926;2022-10-31T09:08:04;12.00;99.90
46319;DHT22;32042;50.916;2.926;2022-10-31T09:10:31;12.10;99.90
46319;DHT22;32042;50.916;2.926;2022-10-31T09:13:17;12.10;99.90
46319;DHT22;32042;50.916;2.926;2022-10-31T09:15:44;12.20;99.90
46319;DHT22;32042;50.916;2.926;2022-10-31T09:18:11;12.20;99.90
46319;DHT22;32042;50.916;2.926;2022-10-31T09:20:37;12.20;99.90
46319;DHT22;32042;50.916;2.926;2022-10-31T09:23:15;12.30;99.90
46319;DHT22;32042;50.916;2.926;2022-10-31T09:25:41;12.30;99.90
46319;DHT22;32042;50.916;2.926;2022-10-31T09:28:10;12.40;99.90
46319;DHT22;32042;50.916;2.926;2022-10-31T09:30:36;12.40;99.90
46319;DHT22;32042;50.916;2.926;2022-10-31T09:33:09;12.50;99.90
46319;DHT22;32042;50.916;2.926;2022-10-31T09:35:35;12.50;99.90
46319;DHT22;32042;50.916;2.926;2022-10-31T09:38:05;12.60;99.90
46319;DHT22;32042;50.916;2.926;2022-10-31T09:40:37;12.70;99.90
46319;DHT22;32042;50.916;2.926;2022-10-31T09:43:19;12.80;99.90
46319;DHT22;32042;50.916;2.926;2022-10-31T09:46:13;12.90;99.90
46319;DHT22;32042;50.916;2.926;2022-10-31T09:51:28;13.10;99.90
46319;DHT22;32042;50.916;2.926;2022-10-31T09:56:27;13.30;99.90
46319;DHT22;32042;50.916;2.926;2022-10-31T09:58:58;13.30;99.90
46319;DHT22;32042;50.916;2.926;2022-10-31T10:09:57;13.70;99.90
46319;DHT22;32042;50.916;2.926;2022-10-31T10:18:37;13.80;99.90
46319;DHT22;32042;50.916;2.926;2022-10-31T10:21:16;13.90;99.90
46319;DHT22;32042;50.916;2.926;2022-10-31T10:27:19;14.00;99.90
46319;DHT22;32042;50.916;2.926;2022-10-31T10:30:20;14.10;99.90
46319;DHT22;32042;50.916;2.926;2022-10-31T10:33:03;14.20;99.90
46319;DHT22;32042;50.916;2.926;2022-10-31T10:35:35;14.30;99.90
46319;DHT22;32042;50.916;2.926;2022-10-31T10:41:18;14.40;99.90
46319;DHT22;32042;50.916;2.926;2022-10-31T10:43:44;14.50;99.90
46319;DHT22;32042;50.916;2.926;2022-10-31T10:46:23;14.50;99.90
46319;DHT22;32042;50.916;2.926;2022-10-31T10:49:32;14.60;99.90
46319;DHT22;32042;50.916;2.926;2022-10-31T10:52:16;14.70;99.90
46319;DHT22;32042;50.916;2.926;2022-10-31T10:54:59;14.80;99.90
46319;DHT22;32042;50.916;2.926;2022-10-31T11:00:31;15.00;99.90
46319;DHT22;32042;50.916;2.926;2022-10-31T11:02:57;15.20;99.90
46319;DHT22;32042;50.916;2.926;2022-10-31T11:05:35;15.30;99.90
46319;DHT22;32042;50.916;2.926;2022-10-31T11:08:02;15.30;99.90
46319;DHT22;32042;50.916;2.926;2022-10-31T11:10:28;15.40;99.90
46319;DHT22;32042;50.916;2.926;2022-10-31T11:16:06;15.80;99.90
46319;DHT22;32042;50.916;2.926;2022-10-31T11:18:36;15.90;99.90
46319;DHT22;32042;50.916;2.926;2022-10-31T11:21:03;16.00;99.90
46319;DHT22;32042;50.916;2.926;2022-10-31T11:23:30;16.00;99.90
46319;DHT22;32042;50.916;2.926;2022-10-31T11:26:03;16.10;99.90
46319;DHT22;32042;50.916;2.926;2022-10-31T11:28:30;16.20;99.90
46319;DHT22;32042;50.916;2.926;2022-10-31T11:31:06;16.20;99.90
46319;DHT22;32042;50.916;2.926;2022-10-31T11:34:21;16.30;99.90
46319;DHT22;32042;50.916;2.926;2022-10-31T11:36:25;16.40;99.90
46319;DHT22;32042;50.916;2.926;2022-10-31T11:38:52;16.50;99.90
46319;DHT22;32042;50.916;2.926;2022-10-31T11:41:32;16.60;99.90
46319;DHT22;32042;50.916;2.926;2022-10-31T11:46:38;16.90;99.90
46319;DHT22;32042;50.916;2.926;2022-10-31T11:49:06;17.00;99.90
46319;DHT22;32042;50.916;2.926;2022-10-31T11:51:37;17.00;99.90
46319;DHT22;32042;50.916;2.926;2022-10-31T11:54:04;17.00;99.90
46319;DHT22;32042;50.916;2.926;2022-10-31T11:56:40;17.00;99.90
46319;DHT22;32042;50.916;2.926;2022-10-31T11:59:17;17.10;99.90
46319;DHT22;32042;50.916;2.926;2022-10-31T12:01:49;17.10;99.90
46319;DHT22;32042;50.916;2.926;2022-10-31T12:04:15;17.00;99.90
46319;DHT22;32042;50.916;2.926;2022-10-31T12:06:44;17.00;99.90
46319;DHT22;32042;50.916;2.926;2022-10-31T12:09:23;17.10;99.90
46319;DHT22;32042;50.916;2.926;2022-10-31T12:17:42;17.20;99.90
46319;DHT22;32042;50.916;2.926;2022-10-31T12:23:18;17.20;99.90
46319;DHT22;32042;50.916;2.926;2022-10-31T12:59:28;17.10;99.90
46319;DHT22;32042;50.916;2.926;2022-10-31T13:05:33;17.00;99.90
46319;DHT22;32042;50.916;2.926;2022-10-31T13:08:18;16.90;99.90
46319;DHT22;32042;50.916;2.926;2022-10-31T13:13:30;16.70;99.90
46319;DHT22;32042;50.916;2.926;2022-10-31T13:16:00;16.60;99.90
46319;DHT22;32042;50.916;2.926;2022-10-31T13:18:40;16.60;99.90
46319;DHT22;32042;50.916;2.926;2022-10-31T13:24:00;16.60;99.90
46319;DHT22;32042;50.916;2.926;2022-10-31T13:26:32;16.50;99.90
46319;DHT22;32042;50.916;2.926;2022-10-31T13:29:16;16.50;99.90
46319;DHT22;32042;50.916;2.926;2022-10-31T13:31:43;16.40;99.90
46319;DHT22;32042;50.916;2.926;2022-10-31T13:34:33;16.40;99.90
46319;DHT22;32042;50.916;2.926;2022-10-31T13:45:16;16.40;99.90
46319;DHT22;32042;50.916;2.926;2022-10-31T13:47:42;16.40;99.90
46319;DHT22;32042;50.916;2.926;2022-10-31T13:52:43;16.40;99.90
46319;DHT22;32042;50.916;2.926;2022-10-31T13:55:36;16.50;99.90
46319;DHT22;32042;50.916;2.926;2022-10-31T13:58:21;16.50;99.90
46319;DHT22;32042;50.916;2.926;2022-10-31T14:03:26;16.50;99.90
46319;DHT22;32042;50.916;2.926;2022-10-31T14:05:55;16.50;99.90
46319;DHT22;32042;50.916;2.926;2022-10-31T14:08:23;16.60;99.90
46319;DHT22;32042;50.916;2.926;2022-10-31T14:10:53;16.60;99.90
46319;DHT22;32042;50.916;2.926;2022-10-31T14:13:42;16.70;99.90
46319;DHT22;32042;50.916;2.926;2022-10-31T14:16:24;16.70;99.90
46319;DHT22;32042;50.916;2.926;2022-10-31T14:18:59;16.70;99.90
46319;DHT22;32042;50.916;2.926;2022-10-31T14:23:51;16.70;99.90
46319;DHT22;32042;50.916;2.926;2022-10-31T14:29:02;16.80;99.90
46319;DHT22;32042;50.916;2.926;2022-10-31T14:31:36;16.70;99.90
46319;DHT22;32042;50.916;2.926;2022-10-31T14:34:19;16.80;99.90
46319;DHT22;32042;50.916;2.926;2022-10-31T14:52:36;16.80;99.90
46319;DHT22;32042;50.916;2.926;2022-10-31T14:55:06;16.80;99.90
46319;DHT22;32042;50.916;2.926;2022-10-31T14:57:37;16.80;99.90
46319;DHT22;32042;50.916;2.926;2022-10-31T15:00:06;16.80;99.90
46319;DHT22;32042;50.916;2.926;2022-10-31T15:02:34;16.90;99.90
46319;DHT22;32042;50.916;2.926;2022-10-31T15:05:07;16.90;99.90
46319;DHT22;32042;50.916;2.926;2022-10-31T15:07:34;16.90;99.90
46319;DHT22;32042;50.916;2.926;2022-10-31T15:10:06;17.00;99.90
46319;DHT22;32042;50.916;2.926;2022-10-31T15:12:34;17.10;99.90
46319;DHT22;32042;50.916;2.926;2022-10-31T15:15:33;17.10;99.90
46319;DHT22;32042;50.916;2.926;2022-10-31T15:18:00;17.10;99.90
46319;DHT22;32042;50.916;2.926;2022-10-31T15:20:32;17.10;99.90
46319;DHT22;32042;50.916;2.926;2022-10-31T15:23:01;17.10;99.90
46319;DHT22;32042;50.916;2.926;2022-10-31T15:25:32;17.10;99.90
46319;DHT22;32042;50.916;2.926;2022-10-31T15:27:58;17.10;99.90
46319;DHT22;32042;50.916;2.926;2022-10-31T15:30:28;17.00;99.90
46319;DHT22;32042;50.916;2.926;2022-10-31T15:32:54;16.90;99.90
46319;DHT22;32042;50.916;2.926;2022-10-31T15:35:27;16.80;99.90
46319;DHT22;32042;50.916;2.926;2022-10-31T15:37:54;16.80;99.90
46319;DHT22;32042;50.916;2.926;2022-10-31T15:40:24;16.70;99.90
46319;DHT22;32042;50.916;2.926;2022-10-31T15:43:04;16.50;99.90
46319;DHT22;32042;50.916;2.926;2022-10-31T15:45:30;16.50;99.90
46319;DHT22;32042;50.916;2.926;2022-10-31T15:47:58;16.40;99.90
46319;DHT22;32042;50.916;2.926;2022-10-31T15:50:40;16.40;99.90
46319;DHT22;32042;50.916;2.926;2022-10-31T15:53:18;16.40;99.90
46319;DHT22;32042;50.916;2.926;2022-10-31T15:55:53;16.30;99.90
46319;DHT22;32042;50.916;2.926;2022-10-31T15:58:20;16.20;99.90
46319;DHT22;32042;50.916;2.926;2022-10-31T16:01:18;16.20;99.90
46319;DHT22;32042;50.916;2.926;2022-10-31T16:03:42;16.10;99.90
46319;DHT22;32042;50.916;2.926;2022-10-31T16:06:19;16.00;99.90
46319;DHT22;32042;50.916;2.926;2022-10-31T16:08:48;15.80;99.90
46319;DHT22;32042;50.916;2.926;2022-10-31T16:14:26;15.70;99.90
46319;DHT22;32042;50.916;2.926;2022-10-31T16:16:55;15.70;99.90
46319;DHT22;32042;50.916;2.926;2022-10-31T16:19:23;15.60;99.90
46319;DHT22;32042;50.916;2.926;2022-10-31T16:22:00;15.60;99.90
46319;DHT22;32042;50.916;2.926;2022-10-31T16:24:33;15.70;99.90
46319;DHT22;32042;50.916;2.926;2022-10-31T16:27:19;15.60;99.90
46319;DHT22;32042;50.916;2.926;2022-10-31T16:29:46;15.60;99.90
46319;DHT22;32042;50.916;2.926;2022-10-31T16:35:17;15.40;99.90
46319;DHT22;32042;50.916;2.926;2022-10-31T16:37:44;15.40;99.90
46319;DHT22;32042;50.916;2.926;2022-10-31T16:40:11;15.40;99.90
46319;DHT22;32042;50.916;2.926;2022-10-31T16:42:38;15.40;99.90
46319;DHT22;32042;50.916;2.926;2022-10-31T16:45:06;15.40;99.90
46319;DHT22;32042;50.916;2.926;2022-10-31T16:47:32;15.40;99.90
46319;DHT22;32042;50.916;2.926;2022-10-31T16:49:57;15.30;99.90
46319;DHT22;32042;50.916;2.926;2022-10-31T16:52:25;15.30;99.90
46319;DHT22;32042;50.916;2.926;2022-10-31T16:54:51;15.30;99.90
46319;DHT22;32042;50.916;2.926;2022-10-31T16:57:27;15.20;99.90
46319;DHT22;32042;50.916;2.926;2022-10-31T16:59:54;15.20;99.90
46319;DHT22;32042;50.916;2.926;2022-10-31T17:02:20;15.10;99.90
46319;DHT22;32042;50.916;2.926;2022-10-31T17:04:46;15.10;99.90
46319;DHT22;32042;50.916;2.926;2022-10-31T17:07:12;15.00;99.90
46319;DHT22;32042;50.916;2.926;2022-10-31T17:09:37;14.90;99.90
46319;DHT22;32042;50.916;2.926;2022-10-31T17:12:04;14.90;99.90
46319;DHT22;32042;50.916;2.926;2022-10-31T17:14:31;14.90;99.90
46319;DHT22;32042;50.916;2.926;2022-10-31T17:16:57;14.90;99.90
46319;DHT22;32042;50.916;2.926;2022-10-31T17:19:23;14.90;99.90
46319;DHT22;32042;50.916;2.926;2022-10-31T17:21:49;14.90;99.90
46319;DHT22;32042;50.916;2.926;2022-10-31T17:24:14;14.90;99.90
46319;DHT22;32042;50.916;2.926;2022-10-31T17:26:40;14.90;99.90
46319;DHT22;32042;50.916;2.926;2022-10-31T17:29:06;14.90;99.90
46319;DHT22;32042;50.916;2.926;2022-10-31T17:31:34;14.90;99.90
46319;DHT22;32042;50.916;2.926;2022-10-31T17:34:01;14.90;99.90
46319;DHT22;32042;50.916;2.926;2022-10-31T17:36:30;14.90;99.90
46319;DHT22;32042;50.916;2.926;2022-10-31T17:38:56;14.90;99.90
46319;DHT22;32042;50.916;2.926;2022-10-31T17:41:22;14.90;99.90
46319;DHT22;32042;50.916;2.926;2022-10-31T17:43:48;14.90;99.90
46319;DHT22;32042;50.916;2.926;2022-10-31T17:46:13;14.90;99.90
46319;DHT22;32042;50.916;2.926;2022-10-31T17:48:39;14.90;99.90
46319;DHT22;32042;50.916;2.926;2022-10-31T17:51:05;14.90;99.90
46319;DHT22;32042;50.916;2.926;2022-10-31T17:53:32;14.80;99.90
46319;DHT22;32042;50.916;2.926;2022-10-31T17:56:08;14.80;99.90
46319;DHT22;32042;50.916;2.926;2022-10-31T17:58:35;14.90;99.90
46319;DHT22;32042;50.916;2.926;2022-10-31T18:01:09;14.90;99.90
46319;DHT22;32042;50.916;2.926;2022-10-31T18:03:35;14.90;99.90
46319;DHT22;32042;50.916;2.926;2022-10-31T18:06:01;14.90;99.90
46319;DHT22;32042;50.916;2.926;2022-10-31T18:08:29;14.90;99.90
46319;DHT22;32042;50.916;2.926;2022-10-31T18:10:55;14.90;99.90
46319;DHT22;32042;50.916;2.926;2022-10-31T18:13:21;14.90;99.90
46319;DHT22;32042;50.916;2.926;2022-10-31T18:15:47;14.90;99.90
46319;DHT22;32042;50.916;2.926;2022-10-31T18:18:13;14.90;99.90
46319;DHT22;32042;50.916;2.926;2022-10-31T18:20:39;14.90;99.90
46319;DHT22;32042;50.916;2.926;2022-10-31T18:23:05;14.90;99.90
46319;DHT22;32042;50.916;2.926;2022-10-31T18:25:31;14.90;99.90
46319;DHT22;32042;50.916;2.926;2022-10-31T18:27:56;14.90;99.90